createdAt,value
2019-06-07T00:05:17.987Z,97.60
2019-06-07T00:11:20.541Z,97.50
2019-06-07T00:17:22.456Z,97.50
2019-06-07T00:23:24.667Z,97.90
2019-06-07T00:29:29.067Z,98.10
2019-06-07T00:35:31.309Z,98.20
2019-06-07T00:41:33.648Z,98.20
2019-06-07T00:47:35.820Z,98.20
2019-06-07T00:53:38.077Z,98.00
2019-06-07T00:59:40.557Z,97.90
2019-06-07T01:05:42.783Z,97.50
2019-06-07T01:11:45.060Z,97.20
2019-06-07T01:18:25.944Z,97.40
2019-06-07T01:24:11.040Z,97.40
2019-06-07T01:29:59.240Z,97.60
2019-06-07T01:36:01.521Z,97.80
2019-06-07T01:42:03.811Z,97.70
2019-06-07T01:48:06.104Z,97.90
2019-06-07T02:00:14.480Z,97.80
2019-06-07T02:06:18.429Z,98.00
2019-06-07T02:12:31.246Z,98.10
2019-06-07T02:18:27.757Z,98.10
2019-06-07T02:24:32.386Z,98.00
2019-06-07T02:30:44.707Z,98.00
2019-06-07T02:36:41.685Z,98.10
2019-06-07T02:42:43.073Z,98.00
2019-06-07T02:48:45.453Z,98.10
2019-06-07T02:54:47.545Z,98.10
2019-06-07T03:01:09.330Z,98.10
2019-06-07T03:06:56.384Z,98.30
2019-06-07T03:13:00.286Z,99.20
2019-06-07T03:19:05.476Z,99.70
2019-06-07T03:25:07.728Z,99.80
2019-06-07T03:31:10.142Z,99.30
2019-06-07T03:37:12.356Z,99.30
2019-06-07T03:43:14.660Z,98.90
2019-06-07T03:49:16.891Z,98.90
2019-06-07T03:55:19.057Z,98.60
2019-06-07T04:01:21.269Z,98.20
2019-06-07T04:07:23.504Z,98.10
2019-06-07T04:13:25.797Z,97.80
2019-06-07T04:19:28.866Z,97.80
2019-06-07T04:25:35.201Z,97.70
2019-06-07T04:31:38.636Z,97.60
2019-06-07T04:37:41.753Z,98.20
2019-06-07T04:43:45.455Z,97.90
2019-06-07T04:49:48.497Z,98.00
2019-06-07T04:55:51.353Z,98.20
2019-06-07T05:01:53.837Z,98.00
2019-06-07T05:07:56.578Z,98.00
2019-06-07T05:13:58.904Z,97.90
2019-06-07T05:20:01.222Z,97.70
2019-06-07T05:26:03.448Z,97.80
2019-06-07T05:32:05.833Z,97.60
2019-06-07T05:38:08.264Z,97.20
2019-06-07T05:44:13.095Z,96.80
2019-06-07T05:50:38.475Z,96.40
2019-06-07T05:56:18.636Z,95.70
2019-06-07T06:02:23.157Z,95.30
2019-06-07T06:08:25.648Z,94.00
2019-06-07T06:14:28.244Z,89.30
2019-06-07T06:20:34.851Z,86.90
2019-06-07T06:26:38.351Z,78.20
2019-06-07T06:32:44.023Z,74.30
2019-06-07T06:38:46.368Z,68.30
2019-06-07T06:44:53.628Z,61.70
2019-06-07T06:50:52.874Z,60.20
2019-06-07T06:57:17.268Z,58.00
2019-06-07T07:09:05.475Z,54.70
2019-06-07T07:15:13.027Z,53.50
2019-06-07T07:21:15.245Z,50.70
2019-06-07T07:27:17.501Z,50.60
2019-06-07T07:33:20.324Z,48.70
2019-06-07T07:39:22.632Z,51.20
2019-06-07T07:45:24.820Z,51.40
2019-06-07T07:51:27.043Z,55.90
2019-06-07T07:57:29.229Z,54.50
2019-06-07T08:03:31.360Z,51.70
2019-06-07T08:09:33.646Z,51.40
2019-06-07T08:15:35.944Z,51.80
2019-06-07T08:21:38.753Z,52.80
2019-06-07T08:27:41.350Z,50.40
2019-06-07T08:33:43.487Z,53.20
2019-06-07T08:39:45.924Z,50.80
2019-06-07T08:45:51.331Z,50.90
2019-06-07T08:51:56.704Z,52.80
2019-06-07T08:58:03.371Z,55.00
2019-06-07T09:04:06.670Z,58.20
2019-06-07T09:10:12.829Z,57.00
2019-06-07T09:16:09.579Z,58.00
2019-06-07T09:22:11.863Z,63.00
2019-06-07T09:28:19.457Z,62.50
2019-06-07T09:34:18.163Z,64.00
2019-06-07T09:40:28.204Z,63.60
2019-06-07T09:46:30.427Z,66.00
2019-06-07T09:52:56.358Z,66.20
2019-06-07T09:58:53.989Z,64.90
2019-06-07T10:04:40.652Z,65.00
2019-06-07T10:10:43.422Z,67.30
2019-06-07T10:16:46.909Z,68.90
2019-06-07T10:22:49.943Z,70.40
2019-06-07T10:28:53.556Z,70.80
2019-06-07T10:34:55.980Z,72.50
2019-06-07T10:41:00.688Z,73.20
2019-06-07T10:47:03.984Z,74.40
2019-06-07T10:53:06.492Z,74.50
2019-06-07T10:59:09.620Z,74.00
2019-06-07T11:05:12.407Z,73.90
2019-06-07T11:11:15.188Z,78.80
2019-06-07T11:17:17.871Z,73.30
2019-06-07T11:23:20.249Z,73.80
2019-06-07T11:29:22.574Z,75.60
2019-06-07T11:35:25.209Z,74.60
2019-06-07T11:41:27.461Z,74.60
2019-06-07T11:47:29.751Z,74.40
2019-06-07T11:53:32.532Z,74.60
2019-06-07T11:59:34.684Z,75.50
2019-06-07T12:05:36.955Z,76.30
2019-06-07T12:11:39.278Z,75.10
2019-06-07T12:17:41.793Z,76.70
2019-06-07T12:23:44.150Z,76.80
2019-06-07T12:29:46.352Z,75.60
2019-06-07T12:35:48.644Z,74.80
2019-06-07T12:41:51.008Z,76.10
2019-06-07T12:47:53.501Z,76.20
2019-06-07T12:53:55.693Z,75.00
2019-06-07T12:59:57.861Z,73.00
2019-06-07T13:06:00.131Z,75.70
2019-06-07T13:12:02.579Z,76.70
2019-06-07T13:18:04.863Z,76.10
2019-06-07T13:24:07.122Z,73.50
2019-06-07T13:30:11.094Z,75.30
2019-06-07T13:36:13.467Z,72.80
2019-06-07T13:42:16.422Z,73.80
2019-06-07T13:48:21.082Z,72.00
2019-06-07T13:54:24.743Z,72.50
2019-06-07T14:00:26.971Z,73.60
2019-06-07T14:06:30.184Z,73.70
2019-06-07T14:12:33.128Z,72.90
2019-06-07T14:18:35.489Z,74.50
2019-06-07T14:24:37.774Z,75.30
2019-06-07T14:30:40.017Z,74.20
2019-06-07T14:36:42.380Z,73.60
2019-06-07T14:42:44.715Z,74.60
2019-06-07T14:48:46.999Z,73.50
2019-06-07T14:54:49.234Z,74.50
2019-06-07T15:00:51.498Z,73.90
2019-06-07T15:06:53.777Z,74.20
2019-06-07T15:12:56.040Z,74.90
2019-06-07T15:18:58.230Z,75.10
2019-06-07T15:25:00.394Z,75.80
2019-06-07T15:31:02.547Z,75.80
2019-06-07T15:37:05.076Z,76.40
2019-06-07T15:43:07.334Z,76.20
2019-06-07T15:49:09.455Z,77.40
2019-06-07T15:55:12.707Z,77.60
2019-06-07T16:01:15.200Z,76.90
2019-06-07T16:07:17.392Z,77.50
2019-06-07T16:13:19.572Z,77.10
2019-06-07T16:19:22.970Z,78.50
2019-06-07T16:25:25.185Z,78.70
2019-06-07T16:31:27.628Z,79.90
2019-06-07T16:37:30.013Z,79.40
2019-06-07T16:43:32.280Z,80.00
2019-06-07T16:49:34.589Z,80.70
2019-06-07T16:55:36.925Z,80.70
2019-06-07T17:01:39.512Z,81.30
2019-06-07T17:07:42.548Z,81.70
2019-06-07T17:13:46.487Z,81.40
2019-06-07T17:19:49.287Z,81.80
2019-06-07T17:25:51.799Z,82.00
2019-06-07T17:31:54.124Z,81.50
2019-06-07T17:37:56.505Z,82.70
2019-06-07T17:44:00.579Z,82.70
2019-06-07T17:50:04.345Z,83.20
2019-06-07T17:56:06.554Z,83.90
2019-06-07T18:02:15.233Z,84.80
2019-06-07T18:08:15.824Z,84.60
2019-06-07T18:14:18.175Z,85.00
2019-06-07T18:20:20.639Z,85.30
2019-06-07T18:26:23.272Z,86.00
2019-06-07T18:32:25.739Z,87.00
2019-06-07T18:38:28.015Z,87.70
2019-06-07T18:44:31.274Z,88.50
2019-06-07T18:50:33.723Z,89.70
2019-06-07T18:56:36.231Z,90.20
2019-06-07T19:02:38.624Z,91.20
2019-06-07T19:08:40.964Z,91.80
2019-06-07T19:14:43.837Z,92.70
2019-06-07T19:20:46.204Z,93.40
2019-06-07T19:26:50.414Z,93.90
2019-06-07T19:32:53.252Z,94.20
2019-06-07T19:38:55.846Z,94.70
2019-06-07T19:45:17.279Z,95.10
2019-06-07T19:51:03.191Z,95.40
2019-06-07T19:57:08.843Z,95.70
2019-06-07T20:03:11.161Z,96.40
2019-06-07T20:09:13.344Z,96.40
2019-06-07T20:15:28.538Z,96.70
2019-06-07T20:21:19.664Z,96.90
2019-06-07T20:27:21.879Z,97.10
2019-06-07T20:33:24.187Z,97.20
2019-06-07T20:39:27.457Z,97.50
2019-06-07T20:45:33.466Z,97.90
2019-06-07T20:51:36.152Z,98.20
2019-06-07T20:57:38.505Z,98.50
2019-06-07T21:03:40.855Z,98.70
2019-06-07T21:09:43.096Z,98.80
2019-06-07T21:15:48.687Z,99.20
2019-06-07T21:21:49.523Z,99.20
2019-06-07T21:27:51.853Z,99.50
2019-06-07T21:33:54.015Z,99.60
2019-06-07T21:39:56.561Z,99.80
2019-06-07T21:46:06.463Z,99.90
2019-06-07T21:52:02.775Z,99.90
2019-06-07T21:58:05.214Z,99.90
2019-06-07T22:04:07.560Z,99.90
2019-06-07T22:10:10.042Z,99.90
2019-06-07T22:16:26.251Z,99.90
2019-06-07T22:22:17.738Z,99.90
2019-06-07T22:28:19.904Z,99.90
2019-06-07T22:34:22.128Z,99.90
2019-06-07T22:40:24.418Z,99.90
2019-06-07T22:46:36.999Z,99.90
2019-06-07T22:52:30.739Z,99.90
2019-06-07T22:58:33.032Z,99.90
2019-06-07T23:04:35.420Z,99.90
2019-06-07T23:10:38.683Z,99.90
2019-06-07T23:16:54.433Z,99.90
2019-06-07T23:22:44.983Z,99.90
2019-06-07T23:28:47.348Z,99.90
2019-06-07T23:35:10.618Z,99.90
2019-06-07T23:41:13.285Z,99.90
2019-06-07T23:47:17.304Z,99.90
2019-06-07T23:53:19.989Z,99.90
2019-06-07T23:59:22.481Z,99.90
